Time;durP1;ratioP1;P1;durP2;ratioP2;P2;SDS_P1;SDS_P2;PMS_P1;PMS_P2;Temp;Humidity;BMP_temperature;BMP_pressure;BME280_temperature;BME280_humidity;BME280_pressure;Samples;Min_cycle;Max_cycle;Signal;HPM_P1;HPM_P2
2022/05/23 00:00:18;;;;;;;11.02;7.90;;;;;;;;;;143725;937;47021;-58
2022/05/23 00:02:46;;;;;;;9.98;6.55;;;;;;;;;;143726;623;46012;-58
2022/05/23 00:05:13;;;;;;;12.15;7.50;;;;;;;;;;143729;631;45019;-58
2022/05/23 00:07:43;;;;;;;9.77;6.57;;;;;;;;;;143730;590;46012;-59
2022/05/23 00:10:13;;;;;;;8.45;6.12;;;;;;;;;;143726;579;47018;-58
2022/05/23 00:12:40;;;;;;;8.43;5.37;;;;;;;;;;143727;595;46011;-59
2022/05/23 00:15:09;;;;;;;11.12;6.12;;;;;;;;;;143729;603;45018;-59
2022/05/23 00:17:36;;;;;;;7.60;5.32;;;;;;;;;;143730;741;46022;-58
2022/05/23 00:20:05;;;;;;;10.02;6.20;;;;;;;;;;143725;794;47020;-59
2022/05/23 00:22:32;;;;;;;11.18;6.43;;;;;;;;;;143724;592;47010;-58
2022/05/23 00:25:00;;;;;;;10.70;6.03;;;;;;;;;;143729;594;45018;-58
2022/05/23 00:27:27;;;;;;;9.25;5.82;;;;;;;;;;143729;644;46022;-58
2022/05/23 00:29:54;;;;;;;8.93;5.55;;;;;;;;;;143726;725;47018;-58
2022/05/23 00:35:18;;;;;;;8.38;6.05;;;;;;;;;;143726;583;47010;-59
2022/05/23 00:37:50;;;;;;;8.85;6.30;;;;;;;;;;143729;651;46012;-58
2022/05/23 00:43:13;;;;;;;10.20;6.20;;;;;;;;;;143725;582;47020;-59
2022/05/23 00:43:58;;;;;;;9.57;7.03;;;;;;;;;;143727;621;46013;-58
2022/05/23 00:46:25;;;;;;;16.98;8.38;;;;;;;;;;143728;590;45036;-59
2022/05/23 00:48:52;;;;;;;27.92;17.55;;;;;;;;;;143730;612;46010;-58
2022/05/23 00:51:20;;;;;;;21.25;14.40;;;;;;;;;;143724;760;47021;-59
2022/05/23 00:53:53;;;;;;;22.95;13.40;;;;;;;;;;143726;636;47010;-58
2022/05/23 00:56:24;;;;;;;30.40;16.75;;;;;;;;;;143728;679;45908;-58
2022/05/23 00:58:55;;;;;;;26.90;17.17;;;;;;;;;;143729;609;46010;-59
2022/05/23 01:01:26;;;;;;;18.30;13.18;;;;;;;;;;143723;586;47018;-58
2022/05/23 01:03:54;;;;;;;22.17;13.13;;;;;;;;;;143727;618;46010;-59
2022/05/23 01:06:21;;;;;;;18.92;12.32;;;;;;;;;;143728;570;45909;-59
2022/05/23 01:08:52;;;;;;;17.80;11.15;;;;;;;;;;143729;639;46010;-58
2022/05/23 01:11:20;;;;;;;19.85;11.18;;;;;;;;;;143724;711;47020;-58
2022/05/23 01:13:47;;;;;;;12.85;9.30;;;;;;;;;;143726;726;46010;-58
2022/05/23 01:16:14;;;;;;;14.40;9.57;;;;;;;;;;143726;658;45910;-58
2022/05/23 01:18:41;;;;;;;18.50;10.63;;;;;;;;;;143730;769;46022;-59
2022/05/23 01:21:18;;;;;;;12.02;9.38;;;;;;;;;;143724;587;47018;-59
2022/05/23 01:24:11;;;;;;;14.07;10.13;;;;;;;;;;143723;582;47010;-59
2022/05/23 01:26:38;;;;;;;18.15;10.40;;;;;;;;;;143729;580;45019;-58
2022/05/23 01:29:12;;;;;;;16.98;9.63;;;;;;;;;;143728;595;46037;-58
2022/05/23 01:31:41;;;;;;;21.73;10.02;;;;;;;;;;143726;829;47020;-59
2022/05/23 01:34:08;;;;;;;17.23;11.15;;;;;;;;;;143724;657;47011;-58
2022/05/23 01:36:35;;;;;;;18.70;9.90;;;;;;;;;;143729;825;45021;-59
2022/05/23 01:39:02;;;;;;;13.80;9.43;;;;;;;;;;143730;623;46010;-58
2022/05/23 01:41:30;;;;;;;15.98;9.45;;;;;;;;;;143725;782;47021;-58
2022/05/23 01:43:57;;;;;;;15.48;10.88;;;;;;;;;;143726;781;46010;-58
2022/05/23 01:46:25;;;;;;;19.48;12.23;;;;;;;;;;143727;666;45908;-59
2022/05/23 01:48:52;;;;;;;18.58;11.93;;;;;;;;;;143729;582;46010;-58
2022/05/23 01:51:19;;;;;;;16.73;11.50;;;;;;;;;;143724;610;47020;-58
2022/05/23 01:53:45;;;;;;;17.98;9.95;;;;;;;;;;143724;662;46914;-58
2022/05/23 01:56:12;;;;;;;19.75;11.52;;;;;;;;;;143727;615;45021;-58
2022/05/23 02:01:25;;;;;;;16.25;9.77;;;;;;;;;;143725;852;47022;-58
2022/05/23 02:03:52;;;;;;;15.18;10.07;;;;;;;;;;143725;604;47010;-58
2022/05/23 02:06:20;;;;;;;20.33;9.75;;;;;;;;;;143728;587;45021;-58
2022/05/23 02:08:47;;;;;;;15.45;9.52;;;;;;;;;;143728;621;47010;-58
2022/05/23 02:11:15;;;;;;;16.33;10.05;;;;;;;;;;143725;629;47021;-58
2022/05/23 02:13:44;;;;;;;12.85;8.80;;;;;;;;;;143726;578;47010;-58
2022/05/23 02:16:11;;;;;;;13.55;9.20;;;;;;;;;;143725;606;46010;-58
2022/05/23 02:18:38;;;;;;;15.10;9.82;;;;;;;;;;143730;600;46020;-58
2022/05/23 02:21:05;;;;;;;15.07;9.63;;;;;;;;;;143728;743;46021;-58
2022/05/23 02:23:32;;;;;;;22.55;11.45;;;;;;;;;;143727;565;46010;-58
2022/05/23 02:25:59;;;;;;;15.07;11.20;;;;;;;;;;143728;564;45911;-58
2022/05/23 02:28:26;;;;;;;19.95;10.48;;;;;;;;;;143729;618;46010;-58
2022/05/23 02:30:53;;;;;;;17.98;9.65;;;;;;;;;;143725;608;47020;-58
2022/05/23 02:33:21;;;;;;;15.60;11.02;;;;;;;;;;143724;570;47010;-58
2022/05/23 02:35:48;;;;;;;16.12;9.32;;;;;;;;;;143729;772;45021;-58
2022/05/23 02:38:15;;;;;;;12.45;8.20;;;;;;;;;;143729;834;46020;-59
2022/05/23 02:40:42;;;;;;;11.65;8.90;;;;;;;;;;143725;934;47022;-59
2022/05/23 02:43:09;;;;;;;12.07;8.20;;;;;;;;;;143725;616;47010;-58
2022/05/23 02:45:39;;;;;;;13.13;9.20;;;;;;;;;;143729;593;45020;-58
2022/05/23 02:48:07;;;;;;;11.98;9.07;;;;;;;;;;143730;929;46010;-58
2022/05/23 02:50:34;;;;;;;13.20;9.18;;;;;;;;;;143726;615;47020;-58
2022/05/23 02:53:01;;;;;;;13.40;8.40;;;;;;;;;;143726;599;46010;-59
2022/05/23 02:55:28;;;;;;;11.82;8.57;;;;;;;;;;143729;586;45020;-58
2022/05/23 02:57:55;;;;;;;12.68;8.60;;;;;;;;;;143730;602;46010;-58
2022/05/23 03:00:22;;;;;;;13.55;9.40;;;;;;;;;;143727;573;47022;-58
2022/05/23 03:03:04;;;;;;;15.00;9.27;;;;;;;;;;143727;610;46025;-58
2022/05/23 03:05:37;;;;;;;11.77;8.85;;;;;;;;;;143730;629;45021;-58
2022/05/23 03:08:04;;;;;;;15.32;10.38;;;;;;;;;;143730;780;46020;-58
2022/05/23 03:10:31;;;;;;;13.43;8.45;;;;;;;;;;143727;652;47020;-59
2022/05/23 03:12:58;;;;;;;17.90;8.68;;;;;;;;;;143728;603;46027;-58
2022/05/23 03:15:27;;;;;;;13.15;9.40;;;;;;;;;;143729;615;45020;-59
2022/05/23 03:17:54;;;;;;;14.40;9.43;;;;;;;;;;143730;706;46011;-59
2022/05/23 03:20:21;;;;;;;11.68;8.20;;;;;;;;;;143725;572;47023;-58
2022/05/23 03:28:17;;;;;;;14.27;9.93;;;;;;;;;;143731;580;46010;-58
2022/05/23 03:30:44;;;;;;;17.23;9.10;;;;;;;;;;143726;587;47020;-59
2022/05/23 03:33:11;;;;;;;14.87;9.80;;;;;;;;;;143723;565;47021;-59
2022/05/23 03:35:39;;;;;;;11.82;9.45;;;;;;;;;;143727;733;45021;-58
2022/05/23 03:38:07;;;;;;;15.32;8.88;;;;;;;;;;143731;582;46020;-58
2022/05/23 03:40:36;;;;;;;10.45;8.65;;;;;;;;;;143724;619;47022;-58
2022/05/23 03:43:03;;;;;;;13.60;9.60;;;;;;;;;;143727;670;46010;-59
2022/05/23 03:45:31;;;;;;;13.43;8.40;;;;;;;;;;143728;615;45913;-58
2022/05/23 03:47:58;;;;;;;13.55;9.07;;;;;;;;;;143731;613;46020;-59
2022/05/23 03:50:28;;;;;;;10.38;7.95;;;;;;;;;;143725;587;47023;-58
2022/05/23 03:52:55;;;;;;;13.82;8.70;;;;;;;;;;143727;569;46010;-58
2022/05/23 03:55:23;;;;;;;15.82;9.63;;;;;;;;;;143728;627;45912;-58
2022/05/23 03:57:50;;;;;;;14.35;10.18;;;;;;;;;;143730;571;46023;-58
2022/05/23 04:00:18;;;;;;;12.88;7.80;;;;;;;;;;143726;661;47020;-58
2022/05/23 04:02:45;;;;;;;15.10;8.48;;;;;;;;;;143726;608;47010;-58
2022/05/23 04:05:14;;;;;;;12.25;9.07;;;;;;;;;;143730;566;45021;-58
2022/05/23 04:07:42;;;;;;;11.68;8.45;;;;;;;;;;143730;775;47012;-58
2022/05/23 04:10:13;;;;;;;16.65;9.35;;;;;;;;;;143726;569;47021;-58
2022/05/23 04:12:40;;;;;;;10.35;7.60;;;;;;;;;;143727;616;46010;-58
2022/05/23 04:15:08;;;;;;;16.50;9.35;;;;;;;;;;143725;586;46020;-58
2022/05/23 04:17:36;;;;;;;15.38;10.50;;;;;;;;;;143731;602;46012;-57
2022/05/23 04:20:04;;;;;;;20.02;10.52;;;;;;;;;;143726;564;47020;-58
2022/05/23 04:22:31;;;;;;;12.93;9.55;;;;;;;;;;143728;592;46010;-57
2022/05/23 04:24:58;;;;;;;13.50;8.80;;;;;;;;;;143730;599;45021;-58
2022/05/23 04:27:25;;;;;;;17.73;10.80;;;;;;;;;;143733;583;46012;-58
2022/05/23 04:29:54;;;;;;;10.90;8.70;;;;;;;;;;143726;582;47020;-58
2022/05/23 04:35:15;;;;;;;17.25;10.70;;;;;;;;;;143728;569;46012;-58
2022/05/23 04:37:48;;;;;;;16.37;10.02;;;;;;;;;;143730;563;46012;-57
2022/05/23 04:40:18;;;;;;;13.15;9.25;;;;;;;;;;143725;625;47022;-57
2022/05/23 04:42:45;;;;;;;15.13;10.00;;;;;;;;;;143727;581;46010;-57
2022/05/23 04:45:13;;;;;;;15.60;9.20;;;;;;;;;;143730;618;45020;-57
2022/05/23 04:50:25;;;;;;;14.98;10.63;;;;;;;;;;143727;626;47023;-58
2022/05/23 04:52:52;;;;;;;23.27;12.27;;;;;;;;;;143728;592;46010;-57
2022/05/23 04:55:20;;;;;;;21.83;10.63;;;;;;;;;;143731;630;45021;-58
2022/05/23 04:57:47;;;;;;;26.05;14.57;;;;;;;;;;143733;596;46012;-58
2022/05/23 05:00:20;;;;;;;21.52;13.57;;;;;;;;;;143727;593;47022;-58
2022/05/23 05:02:49;;;;;;;21.23;13.27;;;;;;;;;;143728;610;46010;-58
2022/05/23 05:05:16;;;;;;;21.17;13.38;;;;;;;;;;143730;569;45910;-58
2022/05/23 05:07:43;;;;;;;19.87;11.32;;;;;;;;;;143732;614;46012;-58
2022/05/23 05:10:11;;;;;;;23.17;15.70;;;;;;;;;;143727;567;47021;-59
2022/05/23 05:12:38;;;;;;;19.12;12.05;;;;;;;;;;143727;578;47010;-58
2022/05/23 05:15:05;;;;;;;33.58;17.60;;;;;;;;;;143730;580;45911;-58
2022/05/23 05:17:32;;;;;;;32.83;17.30;;;;;;;;;;143732;606;46013;-58
2022/05/23 05:19:59;;;;;;;26.35;12.68;;;;;;;;;;143727;574;47022;-58
2022/05/23 05:22:26;;;;;;;18.10;11.80;;;;;;;;;;143728;609;46010;-58
2022/05/23 05:24:53;;;;;;;17.35;10.93;;;;;;;;;;143729;582;45910;-58
2022/05/23 05:27:20;;;;;;;19.10;10.98;;;;;;;;;;143732;592;46012;-57
2022/05/23 05:29:47;;;;;;;20.37;10.95;;;;;;;;;;143726;734;47022;-57
2022/05/23 05:32:47;;;;;;;13.25;8.98;;;;;;;;;;143728;576;46011;-57
2022/05/23 05:35:32;;;;;;;21.42;11.18;;;;;;;;;;143731;590;45022;-57
2022/05/23 05:38:15;;;;;;;;;;;;;;;;;;143736;975;46012;-58
2022/05/23 05:40:48;;;;;;;25.90;11.77;;;;;;;;;;143739;703;47021;-57
2022/05/23 05:43:23;;;;;;;27.80;13.10;;;;;;;;;;143729;569;46029;-57
2022/05/23 05:45:58;;;;;;;28.70;14.27;;;;;;;;;;143729;660;45020;-58
2022/05/23 05:48:26;;;;;;;23.17;12.00;;;;;;;;;;143732;623;46021;-57
2022/05/23 05:50:53;;;;;;;22.05;12.60;;;;;;;;;;143726;582;47022;-57
2022/05/23 05:53:32;;;;;;;26.17;12.95;;;;;;;;;;143727;637;47010;-57
2022/05/23 05:56:01;;;;;;;22.70;12.25;;;;;;;;;;143731;589;45021;-57
2022/05/23 05:58:28;;;;;;;19.35;11.77;;;;;;;;;;143732;646;46010;-56
2022/05/23 06:00:55;;;;;;;21.05;9.60;;;;;;;;;;143728;575;47021;-56
2022/05/23 06:03:22;;;;;;;25.60;11.45;;;;;;;;;;143728;611;46011;-56
2022/05/23 06:11:24;;;;;;;37.58;18.27;;;;;;;;;;143729;598;46012;-56
2022/05/23 06:13:53;;;;;;;32.72;16.20;;;;;;;;;;143727;572;47010;-56
2022/05/23 06:16:20;;;;;;;21.08;11.35;;;;;;;;;;143730;587;45911;-56
2022/05/23 06:18:47;;;;;;;17.90;9.85;;;;;;;;;;143731;576;46010;-56
2022/05/23 06:21:14;;;;;;;19.70;10.23;;;;;;;;;;143726;585;47022;-56
2022/05/23 06:23:43;;;;;;;21.35;9.32;;;;;;;;;;143728;634;46010;-56
2022/05/23 06:26:10;;;;;;;16.95;10.13;;;;;;;;;;143731;603;45021;-56
2022/05/23 06:28:37;;;;;;;15.32;9.15;;;;;;;;;;143731;576;46010;-56
2022/05/23 06:31:04;;;;;;;16.62;9.00;;;;;;;;;;143727;613;47021;-56
2022/05/23 06:33:31;;;;;;;14.13;7.85;;;;;;;;;;143729;604;46010;-59
2022/05/23 06:35:58;;;;;;;12.02;6.90;;;;;;;;;;143728;624;46020;-58
2022/05/23 06:38:25;;;;;;;13.27;6.00;;;;;;;;;;143730;571;47010;-58
2022/05/23 06:40:53;;;;;;;10.38;5.28;;;;;;;;;;143729;642;46012;-58
2022/05/23 06:43:20;;;;;;;11.48;4.70;;;;;;;;;;143647;565;71435;-59
2022/05/23 06:45:48;;;;;;;8.80;5.20;;;;;;;;;;143729;571;46020;-59
2022/05/23 06:48:16;;;;;;;8.82;4.45;;;;;;;;;;143731;569;46021;-59
2022/05/23 06:50:49;;;;;;;8.80;5.32;;;;;;;;;;143726;571;47022;-59
2022/05/23 06:53:16;;;;;;;9.55;4.60;;;;;;;;;;143728;567;46011;-59
2022/05/23 06:55:43;;;;;;;8.65;5.57;;;;;;;;;;143729;603;46021;-59
2022/05/23 06:58:10;;;;;;;13.82;7.45;;;;;;;;;;143732;564;46010;-60
2022/05/23 07:00:37;;;;;;;11.48;7.45;;;;;;;;;;143729;570;46022;-60
2022/05/23 07:03:04;;;;;;;16.75;7.30;;;;;;;;;;143727;598;47011;-60
2022/05/23 07:13:46;;;;;;;26.27;7.97;;;;;;;;;;143730;573;46020;-59
2022/05/23 07:16:16;;;;;;;11.82;7.10;;;;;;;;;;143729;732;45021;-59
2022/05/23 07:18:43;;;;;;;17.80;7.70;;;;;;;;;;143730;608;46035;-58
2022/05/23 07:21:09;;;;;;;16.35;7.28;;;;;;;;;;143727;712;47020;-59
2022/05/23 07:23:38;;;;;;;12.25;7.25;;;;;;;;;;143729;569;46027;-59
2022/05/23 07:26:08;;;;;;;12.48;7.40;;;;;;;;;;143731;613;45021;-59
2022/05/23 07:28:35;;;;;;;14.87;6.87;;;;;;;;;;143731;565;46020;-59
2022/05/23 07:31:02;;;;;;;10.50;7.22;;;;;;;;;;143724;781;47022;-59
2022/05/23 07:33:30;;;;;;;13.60;7.12;;;;;;;;;;143729;583;46012;-59
2022/05/23 07:36:01;;;;;;;15.60;7.22;;;;;;;;;;143730;634;45913;-59
2022/05/23 07:38:28;;;;;;;16.65;7.55;;;;;;;;;;143731;581;46020;-59
2022/05/23 07:40:56;;;;;;;15.27;6.90;;;;;;;;;;143728;572;47020;-59
2022/05/23 07:43:24;;;;;;;11.40;7.05;;;;;;;;;;143727;573;47012;-60
2022/05/23 07:45:52;;;;;;;13.35;7.03;;;;;;;;;;143730;662;45021;-59
2022/05/23 07:48:20;;;;;;;18.00;6.93;;;;;;;;;;143730;706;46021;-59
2022/05/23 07:50:49;;;;;;;16.83;6.97;;;;;;;;;;143726;596;47022;-59
2022/05/23 08:01:29;;;;;;;16.05;7.50;;;;;;;;;;143730;589;46013;-60
2022/05/23 08:03:56;;;;;;;13.00;6.93;;;;;;;;;;143727;652;47012;-59
2022/05/23 08:06:23;;;;;;;10.77;6.93;;;;;;;;;;143725;803;47018;-59
2022/05/23 08:08:50;;;;;;;12.07;6.35;;;;;;;;;;143729;629;46040;-59
2022/05/23 08:11:17;;;;;;;16.08;7.30;;;;;;;;;;143726;569;47018;-59
2022/05/23 08:13:48;;;;;;;14.93;7.37;;;;;;;;;;143726;638;47012;-59
2022/05/23 08:16:15;;;;;;;14.82;6.70;;;;;;;;;;143730;587;45019;-59
2022/05/23 08:18:42;;;;;;;16.87;7.40;;;;;;;;;;143731;651;47010;-59
2022/05/23 08:21:09;;;;;;;8.82;6.20;;;;;;;;;;143727;659;47018;-59
2022/05/23 08:23:37;;;;;;;13.20;6.68;;;;;;;;;;143728;677;46013;-60
2022/05/23 08:26:04;;;;;;;14.15;6.47;;;;;;;;;;143729;569;45018;-60
2022/05/23 08:28:31;;;;;;;19.90;6.18;;;;;;;;;;143731;655;46010;-60
2022/05/23 08:30:57;;;;;;;11.90;6.30;;;;;;;;;;143727;570;47019;-60
2022/05/23 08:33:26;;;;;;;12.55;7.00;;;;;;;;;;143728;629;46033;-60
2022/05/23 08:35:53;;;;;;;13.60;6.40;;;;;;;;;;143729;643;46012;-60
2022/05/23 08:38:21;;;;;;;9.85;5.93;;;;;;;;;;143732;574;46010;-60
2022/05/23 08:41:32;;;;;;;11.35;6.15;;;;;;;;;;143728;569;47021;-60
2022/05/23 08:44:40;;;;;;;11.57;5.72;;;;;;;;;;143728;611;46012;-60
2022/05/23 08:47:14;;;;;;;12.98;6.53;;;;;;;;;;143730;566;45021;-59
2022/05/23 08:50:06;;;;;;;13.90;6.03;;;;;;;;;;143731;565;46010;-60
2022/05/23 08:52:54;;;;;;;14.23;6.22;;;;;;;;;;143727;581;47022;-61
2022/05/23 08:55:36;;;;;;;15.52;6.53;;;;;;;;;;143724;576;47012;-60
2022/05/23 08:58:30;;;;;;;10.65;5.57;;;;;;;;;;143729;585;45018;-60
2022/05/23 09:01:09;;;;;;;12.45;5.50;;;;;;;;;;143731;619;46011;-59
2022/05/23 09:04:13;;;;;;;8.10;5.10;;;;;;;;;;143727;671;47018;-60
2022/05/23 09:06:47;;;;;;;10.43;5.50;;;;;;;;;;143727;654;47012;-59
2022/05/23 09:09:17;;;;;;;13.18;5.65;;;;;;;;;;143731;652;45019;-60
2022/05/23 09:11:46;;;;;;;12.93;5.07;;;;;;;;;;143731;583;47010;-60
2022/05/23 09:14:16;;;;;;;11.73;5.50;;;;;;;;;;143726;564;47018;-60
2022/05/23 09:16:51;;;;;;;9.93;5.45;;;;;;;;;;143727;647;47012;-60
2022/05/23 09:19:40;;;;;;;11.25;5.68;;;;;;;;;;143730;667;45018;-60
2022/05/23 09:22:15;;;;;;;8.02;5.07;;;;;;;;;;143730;723;46022;-59
2022/05/23 09:25:07;;;;;;;12.43;5.10;;;;;;;;;;143725;617;47021;-60
2022/05/23 09:27:57;;;;;;;8.40;5.12;;;;;;;;;;143724;729;47012;-60
2022/05/23 09:30:26;;;;;;;7.47;5.22;;;;;;;;;;143727;659;45019;-59
2022/05/23 09:33:14;;;;;;;11.07;4.90;;;;;;;;;;143728;613;46028;-60
2022/05/23 09:36:20;;;;;;;10.32;5.25;;;;;;;;;;143725;597;47018;-60
2022/05/23 09:39:08;;;;;;;6.80;4.50;;;;;;;;;;143723;698;47013;-61
2022/05/23 09:50:10;;;;;;;8.83;4.13;;;;;;;;;;143728;589;45915;-60
2022/05/23 09:52:49;;;;;;;6.62;3.80;;;;;;;;;;143728;572;45019;-60
2022/05/23 09:55:31;;;;;;;6.53;4.25;;;;;;;;;;143731;590;46023;-61
2022/05/23 09:58:13;;;;;;;6.97;3.87;;;;;;;;;;143729;707;46012;-60
2022/05/23 10:01:01;;;;;;;6.78;4.00;;;;;;;;;;143726;609;47011;-60
2022/05/23 10:03:30;;;;;;;5.25;3.53;;;;;;;;;;143728;576;45020;-60
2022/05/23 10:06:42;;;;;;;6.65;3.33;;;;;;;;;;143729;581;46010;-61
2022/05/23 10:09:22;;;;;;;6.00;3.28;;;;;;;;;;143726;569;47021;-60
2022/05/23 10:12:20;;;;;;;5.32;3.55;;;;;;;;;;143725;655;47010;-61
2022/05/23 10:14:51;;;;;;;8.00;3.85;;;;;;;;;;143754;637;45018;-61
2022/05/23 10:17:57;;;;;;;9.57;4.15;;;;;;;;;;143757;587;46010;-61
2022/05/23 10:20:37;;;;;;;9.85;3.97;;;;;;;;;;143752;644;46020;-61
2022/05/23 10:23:21;;;;;;;11.95;5.05;;;;;;;;;;143752;622;46012;-61
2022/05/23 10:26:18;;;;;;;6.87;3.50;;;;;;;;;;143754;569;45018;-60
2022/05/23 10:28:54;;;;;;;5.68;3.50;;;;;;;;;;143758;633;45022;-61
2022/05/23 10:31:37;;;;;;;9.00;3.75;;;;;;;;;;143755;589;46018;-60
2022/05/23 10:34:46;;;;;;;6.53;3.83;;;;;;;;;;143750;625;46012;-60
2022/05/23 10:37:27;;;;;;;8.00;3.62;;;;;;;;;;143756;586;45914;-60
2022/05/23 10:43:25;;;;;;;6.20;3.62;;;;;;;;;;143758;573;45012;-60
2022/05/23 10:46:02;;;;;;;6.18;3.42;;;;;;;;;;143755;620;45013;-60
2022/05/23 10:49:14;;;;;;;6.20;3.62;;;;;;;;;;143754;570;45913;-60
2022/05/23 10:52:07;;;;;;;5.78;3.85;;;;;;;;;;143758;574;45011;-60
2022/05/23 10:55:00;;;;;;;5.80;3.22;;;;;;;;;;143752;589;46023;-59
2022/05/23 10:57:57;;;;;;;6.47;3.50;;;;;;;;;;143753;564;46012;-59
2022/05/23 11:00:37;;;;;;;6.55;3.95;;;;;;;;;;143753;593;44914;-59
2022/05/23 11:03:49;;;;;;;7.90;3.75;;;;;;;;;;143757;614;45022;-59
2022/05/23 11:06:38;;;;;;;7.10;3.47;;;;;;;;;;143753;581;46020;-60
2022/05/23 11:09:37;;;;;;;5.32;3.10;;;;;;;;;;143753;585;46012;-60
2022/05/23 11:12:28;;;;;;;3.95;2.70;;;;;;;;;;143755;588;45016;-59
2022/05/23 11:15:36;;;;;;;7.53;3.78;;;;;;;;;;143730;603;46022;-59
2022/05/23 11:18:27;;;;;;;7.18;3.62;;;;;;;;;;143725;587;47018;-59
2022/05/23 11:20:59;;;;;;;5.68;3.28;;;;;;;;;;143726;576;46032;-59
2022/05/23 11:23:51;;;;;;;7.43;3.60;;;;;;;;;;143730;572;46019;-59
2022/05/23 11:26:38;;;;;;;9.38;4.62;;;;;;;;;;143730;693;46010;-59
2022/05/23 11:35:12;;;;;;;7.10;3.70;;;;;;;;;;143729;569;46018;-59
2022/05/23 11:37:45;;;;;;;5.47;3.70;;;;;;;;;;143729;604;46010;-60
2022/05/23 11:40:34;;;;;;;;;;;;;;;;;;143729;984;47018;-59
2022/05/23 11:43:09;;;;;;;8.70;4.53;;;;;;;;;;143733;586;47012;-59
2022/05/23 11:48:56;;;;;;;6.20;3.60;;;;;;;;;;143731;607;46022;-59
2022/05/23 11:51:41;;;;;;;4.53;3.80;;;;;;;;;;143725;580;47019;-59
2022/05/23 11:54:11;;;;;;;5.15;3.78;;;;;;;;;;143724;569;47012;-59
2022/05/23 11:56:49;;;;;;;6.75;3.92;;;;;;;;;;143725;574;46018;-58
2022/05/23 12:00:04;;;;;;;8.63;3.90;;;;;;;;;;143730;591;46023;-59
2022/05/23 12:02:36;;;;;;;5.45;3.30;;;;;;;;;;143725;584;47018;-58
2022/05/23 12:05:13;;;;;;;8.43;3.55;;;;;;;;;;143726;604;46012;-59
2022/05/23 12:07:56;;;;;;;6.70;3.75;;;;;;;;;;143727;588;45021;-59
2022/05/23 12:10:53;;;;;;;8.02;4.25;;;;;;;;;;143730;645;46012;-59
2022/05/23 12:13:46;;;;;;;9.40;3.67;;;;;;;;;;143725;606;47019;-59
2022/05/23 12:16:26;;;;;;;6.90;3.65;;;;;;;;;;143723;580;47012;-59
2022/05/23 12:19:30;;;;;;;6.95;3.60;;;;;;;;;;143729;588;45018;-59
2022/05/23 12:22:23;;;;;;;5.97;3.75;;;;;;;;;;143728;603;46022;-59
2022/05/23 12:25:27;;;;;;;5.70;3.23;;;;;;;;;;143723;570;47022;-59
2022/05/23 12:28:23;;;;;;;5.32;3.50;;;;;;;;;;143727;584;46028;-59
2022/05/23 12:31:07;;;;;;;8.48;3.95;;;;;;;;;;143729;600;45021;-59
2022/05/23 12:33:35;;;;;;;5.93;4.00;;;;;;;;;;143730;581;46012;-59
2022/05/23 12:36:11;;;;;;;6.43;3.80;;;;;;;;;;143727;639;47022;-59
2022/05/23 12:38:59;;;;;;;6.28;3.97;;;;;;;;;;143726;565;46012;-59
2022/05/23 12:42:01;;;;;;;5.85;3.92;;;;;;;;;;143726;638;45020;-59
2022/05/23 12:44:53;;;;;;;6.12;3.05;;;;;;;;;;143730;571;46012;-59
2022/05/23 12:47:51;;;;;;;6.37;3.85;;;;;;;;;;143727;622;47020;-59
2022/05/23 12:50:49;;;;;;;4.60;3.53;;;;;;;;;;143725;572;47012;-59
2022/05/23 12:54:08;;;;;;;5.43;3.37;;;;;;;;;;143729;681;45023;-59
2022/05/23 12:57:02;;;;;;;4.85;3.55;;;;;;;;;;143730;660;46020;-59
2022/05/23 12:59:58;;;;;;;3.90;3.22;;;;;;;;;;143725;573;47021;-59
2022/05/23 13:03:07;;;;;;;4.22;3.17;;;;;;;;;;143725;613;47012;-59
2022/05/23 13:06:14;;;;;;;5.05;3.60;;;;;;;;;;143727;654;46913;-59
2022/05/23 13:09:03;;;;;;;4.82;3.28;;;;;;;;;;143728;581;46023;-59
2022/05/23 13:11:44;;;;;;;8.40;4.18;;;;;;;;;;143725;565;47020;-59
2022/05/23 13:14:11;;;;;;;5.75;3.55;;;;;;;;;;143725;609;47013;-59
2022/05/23 13:16:40;;;;;;;7.00;3.70;;;;;;;;;;143726;585;45913;-59
2022/05/23 13:22:13;;;;;;;8.85;4.12;;;;;;;;;;143728;565;46034;-59
2022/05/23 13:24:55;;;;;;;4.30;3.20;;;;;;;;;;143725;609;47012;-59
2022/05/23 13:27:34;;;;;;;5.32;3.40;;;;;;;;;;143726;564;46020;-59
2022/05/23 13:30:08;;;;;;;5.85;3.58;;;;;;;;;;143728;671;47012;-59
2022/05/23 13:32:35;;;;;;;5.32;3.47;;;;;;;;;;143724;669;47043;-59
2022/05/23 13:35:19;;;;;;;4.57;3.30;;;;;;;;;;143727;565;46021;-59
2022/05/23 13:37:47;;;;;;;6.78;3.65;;;;;;;;;;143728;571;45021;-59
2022/05/23 13:40:26;;;;;;;6.37;3.97;;;;;;;;;;143729;566;46020;-59
2022/05/23 13:43:10;;;;;;;7.07;3.53;;;;;;;;;;143726;628;47021;-59
2022/05/23 13:45:39;;;;;;;6.05;3.00;;;;;;;;;;143726;619;46012;-59
2022/05/23 13:48:12;;;;;;;7.30;4.20;;;;;;;;;;143730;677;45020;-59
2022/05/23 13:50:48;;;;;;;6.05;3.75;;;;;;;;;;143731;597;45021;-59
2022/05/23 13:53:22;;;;;;;6.60;3.67;;;;;;;;;;143725;632;47023;-59
2022/05/23 13:55:50;;;;;;;6.05;3.58;;;;;;;;;;143726;633;46012;-59
2022/05/23 13:58:31;;;;;;;3.78;3.20;;;;;;;;;;143728;645;45021;-59
2022/05/23 14:01:15;;;;;;;5.20;2.97;;;;;;;;;;143730;616;46020;-59
2022/05/23 14:03:52;;;;;;;5.90;3.45;;;;;;;;;;143724;593;47020;-59
2022/05/23 14:06:23;;;;;;;7.22;3.60;;;;;;;;;;143726;569;46013;-59
2022/05/23 14:08:59;;;;;;;5.47;3.33;;;;;;;;;;143728;587;45020;-59
2022/05/23 14:11:33;;;;;;;6.03;3.10;;;;;;;;;;143730;626;46012;-59
2022/05/23 14:14:16;;;;;;;5.18;3.12;;;;;;;;;;143725;580;47022;-59
2022/05/23 14:17:03;;;;;;;4.63;3.07;;;;;;;;;;143725;656;47012;-59
2022/05/23 14:19:46;;;;;;;7.35;3.20;;;;;;;;;;143728;665;45020;-59
2022/05/23 14:22:32;;;;;;;4.35;3.40;;;;;;;;;;143729;571;46013;-60
2022/05/23 14:25:12;;;;;;;5.12;3.42;;;;;;;;;;143724;589;47024;-59
2022/05/23 14:27:48;;;;;;;5.90;3.72;;;;;;;;;;143726;665;46012;-59
2022/05/23 14:30:40;;;;;;;8.63;3.90;;;;;;;;;;143727;622;45021;-59
2022/05/23 14:33:39;;;;;;;6.43;3.22;;;;;;;;;;143729;598;47020;-59
2022/05/23 14:36:26;;;;;;;5.35;3.45;;;;;;;;;;143725;627;47025;-59
2022/05/23 14:39:18;;;;;;;4.80;3.50;;;;;;;;;;143725;605;47012;-59
2022/05/23 14:41:46;;;;;;;7.65;4.30;;;;;;;;;;143728;564;45022;-59
2022/05/23 14:44:32;;;;;;;5.78;3.62;;;;;;;;;;143730;653;46012;-59
2022/05/23 14:47:21;;;;;;;4.62;3.47;;;;;;;;;;143725;603;47051;-59
2022/05/23 14:50:07;;;;;;;8.20;3.70;;;;;;;;;;143725;599;47012;-59
2022/05/23 14:52:46;;;;;;;4.82;3.60;;;;;;;;;;143728;569;45021;-59
2022/05/23 14:55:18;;;;;;;4.70;3.60;;;;;;;;;;143729;569;46012;-59
2022/05/23 15:00:57;;;;;;;6.12;4.50;;;;;;;;;;143727;564;46020;-59
2022/05/23 15:03:27;;;;;;;4.03;3.42;;;;;;;;;;143728;611;45020;-59
2022/05/23 15:05:56;;;;;;;5.15;3.75;;;;;;;;;;143730;567;46013;-59
2022/05/23 15:08:24;;;;;;;5.12;3.53;;;;;;;;;;143726;603;47023;-59
2022/05/23 15:10:55;;;;;;;9.52;4.30;;;;;;;;;;143726;592;46028;-59
2022/05/23 15:13:23;;;;;;;5.80;3.58;;;;;;;;;;143728;608;45021;-59
2022/05/23 15:15:50;;;;;;;8.55;3.72;;;;;;;;;;143729;629;46012;-59
2022/05/23 15:18:18;;;;;;;4.53;3.70;;;;;;;;;;143728;734;47020;-59
2022/05/23 15:20:47;;;;;;;6.10;3.47;;;;;;;;;;143727;586;46013;-58
2022/05/23 15:23:14;;;;;;;6.68;4.35;;;;;;;;;;143729;583;45020;-59
2022/05/23 15:25:41;;;;;;;4.85;3.53;;;;;;;;;;143728;569;46020;-59
2022/05/23 15:28:09;;;;;;;5.95;3.62;;;;;;;;;;143725;576;47022;-59
2022/05/23 15:30:36;;;;;;;6.87;4.43;;;;;;;;;;143727;602;46030;-58
2022/05/23 15:33:03;;;;;;;8.23;4.00;;;;;;;;;;143728;580;46020;-59
2022/05/23 15:35:30;;;;;;;4.65;3.60;;;;;;;;;;143731;571;46021;-59
2022/05/23 15:37:57;;;;;;;8.32;4.00;;;;;;;;;;143726;605;47023;-58
2022/05/23 15:40:26;;;;;;;16.52;5.43;;;;;;;;;;143727;564;47012;-60
2022/05/23 15:42:54;;;;;;;13.00;5.22;;;;;;;;;;143730;571;45021;-59
2022/05/23 15:45:26;;;;;;;10.52;4.93;;;;;;;;;;143730;577;46012;-59
2022/05/23 15:47:54;;;;;;;10.05;5.03;;;;;;;;;;143725;569;47022;-59
2022/05/23 15:50:21;;;;;;;8.43;4.60;;;;;;;;;;143727;588;46013;-60
2022/05/23 15:52:49;;;;;;;9.40;4.85;;;;;;;;;;143728;638;45020;-61
2022/05/23 15:55:16;;;;;;;8.25;4.72;;;;;;;;;;143730;563;46012;-60
2022/05/23 15:57:50;;;;;;;9.10;4.90;;;;;;;;;;143728;578;47021;-59
2022/05/23 16:00:21;;;;;;;8.40;5.22;;;;;;;;;;143728;569;46918;-58
2022/05/23 16:02:51;;;;;;;8.80;5.00;;;;;;;;;;143728;583;46012;-59
2022/05/23 16:05:19;;;;;;;6.85;4.95;;;;;;;;;;143731;596;46013;-59
2022/05/23 16:07:46;;;;;;;6.68;4.20;;;;;;;;;;143726;576;47020;-59
2022/05/23 16:10:13;;;;;;;8.35;4.93;;;;;;;;;;143726;591;46027;-59
2022/05/23 16:12:48;;;;;;;7.75;5.43;;;;;;;;;;143727;590;45021;-59
2022/05/23 16:15:16;;;;;;;7.85;4.97;;;;;;;;;;143729;607;46012;-59
2022/05/23 16:17:47;;;;;;;6.60;4.70;;;;;;;;;;143726;613;47022;-59
2022/05/23 16:20:18;;;;;;;7.57;4.70;;;;;;;;;;143727;573;46012;-58
2022/05/23 16:22:47;;;;;;;7.80;4.85;;;;;;;;;;143728;626;45913;-59